createdAt,value
2022-09-27T00:01:38.762Z,7.10
2022-09-27T00:04:40.473Z,7.00
2022-09-27T00:07:43.510Z,7.03
2022-09-27T00:10:45.089Z,7.30
2022-09-27T00:13:46.788Z,5.75
2022-09-27T00:16:48.766Z,5.63
2022-09-27T00:19:50.468Z,6.28
2022-09-27T00:22:52.057Z,6.75
2022-09-27T00:25:58.098Z,8.00
2022-09-27T00:28:59.687Z,8.13
2022-09-27T00:32:01.504Z,8.30
2022-09-27T00:35:03.278Z,7.25
2022-09-27T00:38:04.875Z,7.32
2022-09-27T00:41:06.987Z,6.28
2022-09-27T00:44:27.211Z,4.38
2022-09-27T00:47:53.219Z,4.65
2022-09-27T00:50:59.121Z,5.00
2022-09-27T00:54:01.352Z,5.97
2022-09-27T00:57:05.005Z,5.32
2022-09-27T01:00:12.387Z,5.50
2022-09-27T01:03:34.318Z,5.35
2022-09-27T01:06:36.769Z,6.63
2022-09-27T01:09:38.525Z,5.43
2022-09-27T01:13:06.466Z,7.50
2022-09-27T01:16:24.264Z,7.57
2022-09-27T01:19:44.580Z,8.68
2022-09-27T01:23:23.920Z,6.68
2022-09-27T01:26:37.665Z,8.05
2022-09-27T01:29:57.460Z,8.65
2022-09-27T01:33:14.413Z,8.77
2022-09-27T01:36:22.657Z,9.23
2022-09-27T01:39:40.723Z,8.65
2022-09-27T01:43:12.680Z,7.53
2022-09-27T01:46:28.419Z,7.70
2022-09-27T01:49:53.823Z,8.25
2022-09-27T01:53:05.178Z,7.85
2022-09-27T01:56:12.303Z,8.00
2022-09-27T01:59:33.800Z,7.28
2022-09-27T02:02:47.176Z,7.18
2022-09-27T02:06:02.165Z,8.27
2022-09-27T02:13:38.658Z,6.18
2022-09-27T02:17:15.570Z,5.70
2022-09-27T02:20:30.808Z,5.80
2022-09-27T02:23:43.844Z,5.57
2022-09-27T02:26:49.233Z,6.03
2022-09-27T02:30:15.667Z,5.60
2022-09-27T02:33:20.697Z,6.60
2022-09-27T02:36:22.620Z,8.07
2022-09-27T02:39:24.768Z,8.02
2022-09-27T02:42:27.926Z,8.85
2022-09-27T02:45:48.655Z,8.57
2022-09-27T02:49:05.404Z,7.93
2022-09-27T02:52:25.269Z,5.55
2022-09-27T02:55:53.542Z,6.93
2022-09-27T02:59:03.503Z,6.93
2022-09-27T03:02:33.033Z,6.20
2022-09-27T03:05:49.208Z,7.40
2022-09-27T03:08:51.332Z,8.63
2022-09-27T03:11:53.191Z,9.23
2022-09-27T03:14:59.966Z,9.82
2022-09-27T03:18:02.114Z,8.90
2022-09-27T03:21:03.728Z,8.02
2022-09-27T03:24:06.553Z,7.72
2022-09-27T03:27:08.521Z,7.22
2022-09-27T03:30:12.746Z,6.60
2022-09-27T03:33:14.476Z,6.50
2022-09-27T03:36:16.054Z,5.68
2022-09-27T03:39:17.591Z,6.28
2022-09-27T03:42:19.155Z,5.85
2022-09-27T03:45:20.990Z,6.30
2022-09-27T03:48:27.775Z,7.93
2022-09-27T03:51:29.735Z,10.10
2022-09-27T03:54:31.267Z,10.50
2022-09-27T03:57:32.874Z,11.38
2022-09-27T04:00:36.251Z,10.95
2022-09-27T04:03:38.125Z,11.05
2022-09-27T04:06:39.718Z,10.65
2022-09-27T04:09:44.730Z,10.05
2022-09-27T04:12:46.763Z,10.48
2022-09-27T04:15:52.218Z,10.35
2022-09-27T04:18:54.167Z,9.52
2022-09-27T04:21:55.691Z,9.60
2022-09-27T04:24:57.325Z,8.10
2022-09-27T04:27:59.684Z,8.02
2022-09-27T04:31:01.372Z,7.40
2022-09-27T04:34:04.206Z,6.97
2022-09-27T04:37:05.938Z,7.40
2022-09-27T04:40:10.674Z,6.18
2022-09-27T04:43:12.223Z,6.28
2022-09-27T04:46:14.113Z,7.82
2022-09-27T04:49:17.747Z,6.45
2022-09-27T04:52:19.796Z,8.02
2022-09-27T04:55:22.425Z,8.23
2022-09-27T04:58:24.537Z,6.50
2022-09-27T05:01:26.134Z,5.78
2022-09-27T05:04:27.798Z,5.03
2022-09-27T05:07:29.568Z,5.28
2022-09-27T05:10:31.074Z,4.70
2022-09-27T05:13:33.633Z,5.55
2022-09-27T05:16:36.119Z,4.18
2022-09-27T05:19:40.443Z,3.40
2022-09-27T05:22:41.949Z,3.45
2022-09-27T05:25:43.711Z,3.30
2022-09-27T05:28:47.218Z,3.53
2022-09-27T05:31:49.859Z,3.35
2022-09-27T05:34:53.626Z,2.33
2022-09-27T05:38:00.154Z,2.80
2022-09-27T05:41:01.789Z,2.85
2022-09-27T05:44:03.360Z,3.35
2022-09-27T05:47:05.392Z,2.33
2022-09-27T05:50:08.940Z,2.10
2022-09-27T05:53:11.312Z,2.75
2022-09-27T05:56:12.899Z,2.88
2022-09-27T05:59:14.666Z,2.70
2022-09-27T06:02:16.270Z,3.08
2022-09-27T06:05:17.835Z,3.50
2022-09-27T06:08:22.324Z,2.88
2022-09-27T06:11:23.844Z,2.95
2022-09-27T06:14:25.399Z,2.55
2022-09-27T06:17:26.911Z,2.97
2022-09-27T06:20:28.465Z,2.58
2022-09-27T06:23:33.787Z,2.17
2022-09-27T06:26:35.339Z,2.42
2022-09-27T06:29:37.392Z,2.45
2022-09-27T06:32:38.985Z,2.38
2022-09-27T06:35:42.455Z,1.90
2022-09-27T06:38:46.144Z,2.00
2022-09-27T06:41:48.100Z,2.58
2022-09-27T06:44:50.430Z,2.40
2022-09-27T06:47:53.220Z,2.55
2022-09-27T06:50:57.391Z,3.42
2022-09-27T06:53:58.909Z,2.15
2022-09-27T06:57:02.724Z,2.22
2022-09-27T07:00:23.178Z,2.60
2022-09-27T07:03:35.558Z,2.78
2022-09-27T07:06:38.264Z,2.35
2022-09-27T07:09:40.171Z,2.22
2022-09-27T07:12:41.695Z,2.50
2022-09-27T07:15:43.200Z,2.05
2022-09-27T07:18:44.900Z,2.20
2022-09-27T07:21:46.506Z,2.33
2022-09-27T07:24:48.281Z,2.15
2022-09-27T07:27:50.252Z,1.85
2022-09-27T07:30:55.685Z,2.28
2022-09-27T07:33:57.324Z,1.90
2022-09-27T07:37:00.358Z,1.95
2022-09-27T07:40:03.005Z,2.40
2022-09-27T07:43:04.967Z,2.25
2022-09-27T07:46:07.705Z,2.58
2022-09-27T07:49:09.375Z,3.28
2022-09-27T07:52:11.044Z,2.83
2022-09-27T07:55:14.574Z,2.50
2022-09-27T07:58:16.515Z,2.40
2022-09-27T08:01:18.209Z,2.88
2022-09-27T08:04:19.896Z,2.33
2022-09-27T08:07:21.433Z,2.10
2022-09-27T08:10:30.422Z,3.33
2022-09-27T08:13:32.006Z,2.58
2022-09-27T08:16:34.345Z,2.50
2022-09-27T08:19:36.216Z,2.35
2022-09-27T08:22:45.516Z,2.42
2022-09-27T08:25:53.218Z,2.25
2022-09-27T08:28:54.832Z,2.50
2022-09-27T08:31:56.427Z,3.83
2022-09-27T08:34:59.530Z,2.20
2022-09-27T08:38:02.723Z,1.80
2022-09-27T08:41:26.247Z,1.73
2022-09-27T08:44:46.615Z,1.90
2022-09-27T08:47:55.096Z,1.63
2022-09-27T08:50:58.120Z,1.70
2022-09-27T08:54:08.021Z,1.52
2022-09-27T08:57:12.656Z,1.73
2022-09-27T09:00:14.744Z,1.42
2022-09-27T09:03:19.360Z,1.50
2022-09-27T09:06:25.879Z,1.60
2022-09-27T09:09:40.154Z,1.98
2022-09-27T09:12:49.922Z,2.00
2022-09-27T09:16:15.804Z,2.00
2022-09-27T09:19:31.148Z,2.10
2022-09-27T09:22:54.295Z,2.13
2022-09-27T09:26:28.314Z,1.70
2022-09-27T09:29:51.564Z,2.05
2022-09-27T09:33:19.808Z,2.10
2022-09-27T09:36:30.391Z,2.28
2022-09-27T09:39:43.018Z,1.90
2022-09-27T09:42:54.447Z,1.98
2022-09-27T09:46:12.391Z,1.98
2022-09-27T09:49:22.766Z,2.05
2022-09-27T09:52:39.564Z,2.17
2022-09-27T09:55:43.740Z,2.00
2022-09-27T09:58:54.134Z,2.63
2022-09-27T10:02:00.372Z,2.45
2022-09-27T10:05:07.518Z,2.95
2022-09-27T10:08:17.314Z,3.05
2022-09-27T10:11:23.937Z,2.85
2022-09-27T10:14:27.871Z,3.97
2022-09-27T10:17:36.999Z,4.10
2022-09-27T10:20:55.899Z,3.78
2022-09-27T10:24:19.476Z,4.00
2022-09-27T10:27:21.719Z,4.20
2022-09-27T10:30:32.692Z,3.65
2022-09-27T10:33:37.802Z,4.35
2022-09-27T10:36:39.465Z,3.72
2022-09-27T10:39:41.413Z,4.20
2022-09-27T10:42:43.584Z,4.07
2022-09-27T10:45:45.596Z,4.35
2022-09-27T10:48:47.236Z,4.47
2022-09-27T10:52:04.725Z,4.80
2022-09-27T10:55:23.185Z,4.10
2022-09-27T10:58:30.866Z,3.20
2022-09-27T11:01:50.120Z,2.95
2022-09-27T11:05:31.076Z,2.67
2022-09-27T11:11:34.863Z,2.22
2022-09-27T11:14:36.798Z,1.90
2022-09-27T11:17:45.107Z,2.55
2022-09-27T11:20:55.888Z,2.00
2022-09-27T11:27:18.390Z,2.50
2022-09-27T11:30:21.667Z,2.72
2022-09-27T11:33:42.650Z,3.00
2022-09-27T11:37:02.830Z,3.13
2022-09-27T11:40:19.840Z,2.92
2022-09-27T11:43:39.182Z,3.20
2022-09-27T11:46:42.526Z,3.30
2022-09-27T11:50:07.057Z,3.10
2022-09-27T11:53:31.979Z,2.83
2022-09-27T11:57:11.599Z,3.33
2022-09-27T12:00:24.787Z,3.50
2022-09-27T12:04:04.079Z,3.67
2022-09-27T12:07:17.394Z,3.80
2022-09-27T12:10:21.520Z,4.43
2022-09-27T12:13:43.443Z,4.35
2022-09-27T12:16:47.091Z,4.53
2022-09-27T12:19:53.168Z,4.53
2022-09-27T12:23:06.078Z,4.38
2022-09-27T12:26:25.233Z,4.72
2022-09-27T12:29:33.974Z,4.85
2022-09-27T12:33:02.174Z,3.53
2022-09-27T12:36:10.677Z,3.28
2022-09-27T12:39:48.025Z,3.78
2022-09-27T12:43:17.283Z,5.10
2022-09-27T12:46:31.861Z,5.93
2022-09-27T12:49:36.791Z,6.15
2022-09-27T12:52:43.330Z,5.60
2022-09-27T12:56:10.715Z,4.53
2022-09-27T12:59:53.935Z,5.20
2022-09-27T13:03:25.748Z,4.88
2022-09-27T13:06:33.988Z,4.50
2022-09-27T13:09:50.253Z,4.45
2022-09-27T13:12:54.542Z,4.15
2022-09-27T13:15:59.940Z,4.25
2022-09-27T13:19:02.136Z,3.53
2022-09-27T13:22:09.919Z,3.90
2022-09-27T13:25:54.277Z,5.13
2022-09-27T13:29:03.335Z,4.15
2022-09-27T13:32:16.065Z,4.28
2022-09-27T13:35:23.059Z,4.30
2022-09-27T13:38:24.824Z,3.70
2022-09-27T13:41:28.470Z,2.75
2022-09-27T13:44:30.137Z,3.65
2022-09-27T13:47:40.279Z,3.60
2022-09-27T13:50:44.920Z,2.85
2022-09-27T13:54:10.583Z,2.30
2022-09-27T13:57:37.463Z,2.70
2022-09-27T14:00:43.989Z,2.42
2022-09-27T14:03:46.690Z,3.00
2022-09-27T14:06:57.270Z,3.13
2022-09-27T14:10:02.172Z,2.30
2022-09-27T14:13:05.930Z,2.47
2022-09-27T14:16:08.516Z,1.60
2022-09-27T14:19:17.668Z,1.52
2022-09-27T14:22:21.835Z,1.20
2022-09-27T14:25:23.498Z,1.00
2022-09-27T14:28:28.528Z,1.23
2022-09-27T14:31:30.173Z,1.35
2022-09-27T14:34:31.877Z,1.50
2022-09-27T14:37:35.801Z,1.48
2022-09-27T14:40:43.544Z,1.30
2022-09-27T14:43:49.368Z,1.88
2022-09-27T14:47:24.793Z,1.60
2022-09-27T14:50:30.159Z,1.90
2022-09-27T14:53:35.496Z,1.80
2022-09-27T14:56:38.327Z,1.80
2022-09-27T14:59:44.497Z,1.80
2022-09-27T15:02:46.608Z,2.10
2022-09-27T15:05:48.516Z,1.50
2022-09-27T15:08:50.946Z,1.83
2022-09-27T15:11:56.900Z,2.10
2022-09-27T15:14:59.207Z,1.63
2022-09-27T15:18:01.912Z,1.80
2022-09-27T15:21:04.991Z,2.20
2022-09-27T15:24:27.157Z,1.80
2022-09-27T15:27:29.001Z,1.60
2022-09-27T15:30:35.610Z,1.70
2022-09-27T15:33:37.543Z,2.00
2022-09-27T15:36:52.617Z,2.20
2022-09-27T15:39:54.255Z,1.50
2022-09-27T15:43:02.546Z,1.50
2022-09-27T15:46:25.440Z,1.73
2022-09-27T15:49:35.184Z,1.85
2022-09-27T15:52:51.094Z,1.50
2022-09-27T15:55:52.668Z,1.90
2022-09-27T15:58:54.227Z,1.50
2022-09-27T16:01:58.635Z,1.77
2022-09-27T16:05:00.239Z,1.63
2022-09-27T16:08:01.945Z,2.05
2022-09-27T16:11:05.549Z,1.90
2022-09-27T16:14:07.125Z,2.80
2022-09-27T16:17:10.625Z,3.10
2022-09-27T16:20:19.531Z,2.88
2022-09-27T16:23:26.542Z,3.35
2022-09-27T16:26:28.541Z,3.38
2022-09-27T16:29:44.343Z,3.60
2022-09-27T16:33:04.439Z,3.35
2022-09-27T16:36:14.170Z,3.93
2022-09-27T16:39:15.962Z,2.97
2022-09-27T16:42:18.130Z,2.40
2022-09-27T16:45:19.946Z,2.65
2022-09-27T16:48:21.648Z,2.70
2022-09-27T16:51:48.375Z,2.20
2022-09-27T16:54:49.961Z,2.08
2022-09-27T16:57:51.756Z,1.85
2022-09-27T17:00:58.482Z,2.00
2022-09-27T17:04:00.257Z,2.13
2022-09-27T17:07:02.687Z,2.40
2022-09-27T17:10:04.933Z,2.33
2022-09-27T17:13:12.054Z,2.40
2022-09-27T17:16:16.521Z,2.05
2022-09-27T17:19:26.384Z,2.83
2022-09-27T17:22:32.241Z,2.10
2022-09-27T17:25:39.468Z,2.00
2022-09-27T17:28:48.306Z,2.53
2022-09-27T17:32:18.372Z,2.10
2022-09-27T17:35:20.105Z,2.13
2022-09-27T17:38:21.748Z,1.85
2022-09-27T17:41:24.962Z,2.25
2022-09-27T17:44:27.140Z,2.22
2022-09-27T17:47:47.573Z,2.65
2022-09-27T17:50:49.236Z,2.25
2022-09-27T17:53:52.755Z,2.22
2022-09-27T17:56:56.109Z,2.38
2022-09-27T17:59:57.972Z,2.20
2022-09-27T18:03:00.321Z,2.50
2022-09-27T18:06:09.576Z,2.63
2022-09-27T18:09:13.301Z,2.50
2022-09-27T18:12:16.255Z,3.70
2022-09-27T18:15:29.927Z,3.72
2022-09-27T18:18:33.792Z,3.50
2022-09-27T18:21:35.421Z,3.22
2022-09-27T18:24:37.015Z,3.05
2022-09-27T18:27:40.245Z,3.60
2022-09-27T18:30:41.883Z,3.45
2022-09-27T18:33:43.718Z,3.75
2022-09-27T18:36:45.449Z,3.75
2022-09-27T18:39:47.030Z,2.80
2022-09-27T18:42:48.691Z,3.45
2022-09-27T18:45:50.662Z,3.60
2022-09-27T18:48:52.401Z,3.25
2022-09-27T18:51:54.008Z,3.70
2022-09-27T18:54:55.567Z,3.50
2022-09-27T18:57:57.230Z,3.60
2022-09-27T19:01:00.295Z,3.30
2022-09-27T19:04:02.206Z,3.72
2022-09-27T19:07:04.061Z,3.58
2022-09-27T19:10:06.087Z,3.67
2022-09-27T19:13:07.652Z,3.63
2022-09-27T19:16:09.507Z,3.88
2022-09-27T19:19:11.081Z,4.25
2022-09-27T19:22:12.637Z,4.18
2022-09-27T19:25:15.284Z,4.93
2022-09-27T19:28:18.297Z,4.90
2022-09-27T19:31:24.351Z,5.18
2022-09-27T19:34:26.012Z,4.28
2022-09-27T19:37:27.577Z,5.72
2022-09-27T19:40:31.626Z,6.40
2022-09-27T19:44:49.930Z,6.13
2022-09-27T19:48:10.481Z,6.00
2022-09-27T20:00:15.338Z,6.32
2022-09-27T20:07:27.704Z,6.68
2022-09-27T20:10:29.322Z,6.28
2022-09-27T20:13:32.086Z,6.53
2022-09-27T20:16:36.124Z,5.63
2022-09-27T20:19:40.848Z,6.78
2022-09-27T20:22:42.396Z,7.20
2022-09-27T20:25:44.318Z,7.68
2022-09-27T20:28:50.627Z,7.78
2022-09-27T20:32:15.847Z,6.50
2022-09-27T20:35:13.938Z,7.97
2022-09-27T20:38:16.053Z,7.43
2022-09-27T20:41:20.375Z,9.23
2022-09-27T20:44:22.145Z,7.65
2022-09-27T20:47:23.783Z,9.23
2022-09-27T20:50:25.354Z,8.55
2022-09-27T20:53:27.596Z,9.10
2022-09-27T20:56:31.509Z,10.10
2022-09-27T20:59:33.191Z,11.70
2022-09-27T21:02:34.817Z,8.70
2022-09-27T21:05:36.410Z,12.80
2022-09-27T21:08:38.285Z,13.77
2022-09-27T21:11:39.898Z,16.77
2022-09-27T21:14:41.475Z,15.85
2022-09-27T21:17:43.223Z,16.20
2022-09-27T21:20:44.941Z,17.02
2022-09-27T21:23:47.613Z,15.32
2022-09-27T21:26:49.228Z,15.43
2022-09-27T21:29:50.870Z,16.13
2022-09-27T21:32:57.253Z,16.13
2022-09-27T21:35:59.036Z,15.30
2022-09-27T21:39:01.014Z,13.73
2022-09-27T21:42:02.788Z,12.98
2022-09-27T21:45:04.571Z,10.13
2022-09-27T21:48:06.126Z,11.32
2022-09-27T21:51:13.770Z,14.05
2022-09-27T21:54:15.796Z,13.15
2022-09-27T21:57:17.360Z,12.70
2022-09-27T22:00:19.053Z,14.20
2022-09-27T22:03:20.911Z,12.05
2022-09-27T22:06:27.981Z,13.88
2022-09-27T22:09:29.761Z,12.05
2022-09-27T22:12:31.340Z,12.52
2022-09-27T22:15:36.202Z,12.48
2022-09-27T22:18:38.893Z,12.63
2022-09-27T22:21:41.244Z,16.10
2022-09-27T22:24:42.842Z,14.15
2022-09-27T22:27:44.392Z,15.30
2022-09-27T22:30:45.935Z,15.55
2022-09-27T22:33:54.118Z,13.48
2022-09-27T22:36:57.706Z,14.88
2022-09-27T22:39:59.283Z,14.18
2022-09-27T22:43:00.857Z,13.85
2022-09-27T22:46:02.694Z,12.60
2022-09-27T22:49:04.268Z,12.05
2022-09-27T22:52:05.837Z,15.52
2022-09-27T22:55:07.804Z,14.45
2022-09-27T22:58:09.465Z,13.65
2022-09-27T23:01:21.263Z,14.45
2022-09-27T23:04:22.942Z,13.50
2022-09-27T23:07:24.585Z,12.70
2022-09-27T23:10:27.761Z,13.05
2022-09-27T23:13:34.206Z,11.65
2022-09-27T23:16:36.920Z,15.00
2022-09-27T23:19:38.523Z,12.25
2022-09-27T23:22:40.064Z,10.18
2022-09-27T23:25:41.664Z,11.40
2022-09-27T23:28:44.219Z,11.55
2022-09-27T23:31:45.875Z,11.90
2022-09-27T23:34:47.469Z,11.43
2022-09-27T23:37:53.328Z,10.90
2022-09-27T23:40:54.911Z,11.30
2022-09-27T23:43:56.679Z,11.23
2022-09-27T23:47:00.371Z,10.98
2022-09-27T23:50:02.184Z,11.55
2022-09-27T23:53:03.770Z,13.02
2022-09-27T23:56:13.566Z,11.95
2022-09-27T23:59:15.365Z,10.18
